Time,TemperatureF,DewpointF,PressureIn,WindDirection,WindDirectionDegrees,WindSpeedMPH,WindSpeedGustMPH,Humidity,HourlyPrecipIn,Conditions,Clouds,dailyrainin,SoftwareType,DateUTC
2013-11-23 00:11:00,33.1,32.6,29.66,ESE,112,0.0,-999.0,98,-99.99,,,0.00,Acu-Link.com,2013-11-23 05:11:00,
2013-11-23 00:26:00,33.1,32.6,29.66,ESE,112,0.0,-999.0,98,-99.99,,,0.00,Acu-Link.com,2013-11-23 05:26:00,
2013-11-23 00:41:00,33.1,32.6,29.65,ESE,112,0.0,-999.0,98,-99.99,,,0.00,Acu-Link.com,2013-11-23 05:41:00,
2013-11-23 00:57:00,32.9,32.4,29.65,SE,135,0.0,-999.0,98,-99.99,,,0.00,Acu-Link.com,2013-11-23 05:57:00,
2013-11-23 01:12:00,32.7,32.2,29.65,South,180,0.0,-999.0,98,-99.99,,,0.00,Acu-Link.com,2013-11-23 06:12:00,
2013-11-23 01:27:00,32.7,32.2,29.64,NNW,337,0.0,-999.0,98,-99.99,,,0.00,Acu-Link.com,2013-11-23 06:27:00,
2013-11-23 01:43:00,37.6,37.1,29.66,WNW,292,3.2,-999.0,98,-99.99,,,0.00,Acu-Link.com,2013-11-23 06:43:00,
2013-11-23 01:58:00,39.4,38.9,29.66,WNW,292,2.7,-999.0,98,-99.99,,,0.00,Acu-Link.com,2013-11-23 06:58:00,
2013-11-23 02:13:00,38.8,38.3,29.67,North,0,2.7,-999.0,98,-99.99,,,0.00,Acu-Link.com,2013-11-23 07:13:00,
2013-11-23 02:28:00,39.7,39.2,29.67,WNW,292,5.3,-999.0,98,-99.99,,,0.00,Acu-Link.com,2013-11-23 07:28:00,
2013-11-23 02:43:00,39.7,39.2,29.68,NW,315,4.7,-999.0,98,-99.99,,,0.00,Acu-Link.com,2013-11-23 07:43:00,
2013-11-23 02:59:00,39.4,38.9,29.68,East,90,6.3,-999.0,98,-99.99,,,0.00,Acu-Link.com,2013-11-23 07:59:00,
2013-11-23 03:14:00,39.0,38.5,29.69,NNE,22,6.8,-999.0,98,-99.99,,,0.00,Acu-Link.com,2013-11-23 08:14:00,
2013-11-23 03:29:00,38.5,38.0,29.68,NNW,337,3.2,-999.0,98,-99.99,,,0.00,Acu-Link.com,2013-11-23 08:29:00,
2013-11-23 03:44:00,37.4,36.9,29.68,SE,135,1.7,-999.0,98,-99.99,,,0.00,Acu-Link.com,2013-11-23 08:44:00,
2013-11-23 03:59:00,36.7,36.2,29.68,WNW,292,3.7,-999.0,98,-99.99,,,0.00,Acu-Link.com,2013-11-23 08:59:00,
2013-11-23 04:15:00,35.8,33.7,29.69,NNE,22,4.2,-999.0,92,-99.99,,,0.00,Acu-Link.com,2013-11-23 09:15:00,
2013-11-23 04:30:00,35.1,34.6,29.68,NW,315,5.8,-999.0,98,-99.99,,,0.00,Acu-Link.com,2013-11-23 09:30:00,
2013-11-23 04:45:00,34.5,34.0,29.69,NNW,337,6.8,-999.0,98,-99.99,,,0.00,Acu-Link.com,2013-11-23 09:45:00,
2013-11-23 05:00:00,34.5,34.0,29.69,NW,315,7.3,-999.0,98,-99.99,,,0.00,Acu-Link.com,2013-11-23 10:00:00,
2013-11-23 05:15:00,33.8,33.3,29.68,WNW,292,3.2,-999.0,98,-99.99,,,0.00,Acu-Link.com,2013-11-23 10:15:00,
2013-11-23 05:31:00,33.1,32.6,29.69,NNE,22,4.2,-999.0,98,-99.99,,,0.00,Acu-Link.com,2013-11-23 10:31:00,
2013-11-23 05:46:00,32.7,32.2,29.70,North,0,3.7,-999.0,98,-99.99,,,0.00,Acu-Link.com,2013-11-23 10:46:00,
2013-11-23 06:01:00,32.2,31.7,29.72,NW,315,5.3,-999.0,98,-99.99,,,0.00,Acu-Link.com,2013-11-23 11:01:00,
2013-11-23 06:16:00,32.0,29.7,29.73,SW,225,4.7,-999.0,91,-99.99,,,0.00,Acu-Link.com,2013-11-23 11:16:00,
2013-11-23 06:32:00,31.5,29.7,29.74,SW,225,3.2,-999.0,93,-99.99,,,0.00,Acu-Link.com,2013-11-23 11:32:00,
2013-11-23 06:47:00,31.3,29.5,29.75,SW,225,2.2,-999.0,93,-99.99,,,0.00,Acu-Link.com,2013-11-23 11:47:00,
2013-11-23 07:02:00,31.1,29.3,29.75,WNW,292,1.7,-999.0,93,-99.99,,,0.00,Acu-Link.com,2013-11-23 12:02:00,
2013-11-23 07:17:00,30.9,28.3,29.74,SW,225,2.7,-999.0,90,-99.99,,,0.00,Acu-Link.com,2013-11-23 12:17:00,
2013-11-23 07:32:00,30.9,27.8,29.74,NNE,22,2.7,-999.0,88,-99.99,,,0.00,Acu-Link.com,2013-11-23 12:32:00,
2013-11-23 07:48:00,30.9,26.9,29.75,SSW,202,2.7,-999.0,85,-99.99,,,0.00,Acu-Link.com,2013-11-23 12:48:00,
2013-11-23 08:03:00,30.7,27.6,29.76,SW,225,0.0,-999.0,88,-99.99,,,0.00,Acu-Link.com,2013-11-23 13:03:00,
2013-11-23 08:18:00,30.4,26.7,29.77,SW,225,2.2,-999.0,86,-99.99,,,0.00,Acu-Link.com,2013-11-23 13:18:00,
2013-11-23 08:33:00,30.4,26.4,29.77,SSW,202,1.1,-999.0,85,-99.99,,,0.00,Acu-Link.com,2013-11-23 13:33:00,
2013-11-23 08:48:00,30.4,26.7,29.77,West,270,5.3,-999.0,86,-99.99,,,0.00,Acu-Link.com,2013-11-23 13:48:00,
2013-11-23 09:04:00,30.4,25.3,29.78,WNW,292,2.2,-999.0,81,-99.99,,,0.00,Acu-Link.com,2013-11-23 14:04:00,
2013-11-23 09:19:00,30.6,26.1,29.77,West,270,0.0,-999.0,83,-99.99,,,0.00,Acu-Link.com,2013-11-23 14:19:00,
2013-11-23 09:34:00,31.1,25.1,29.78,NNE,22,3.7,-999.0,78,-99.99,,,0.00,Acu-Link.com,2013-11-23 14:34:00,
2013-11-23 09:49:00,32.5,25.8,29.77,NNW,337,2.2,-999.0,76,-99.99,,,0.00,Acu-Link.com,2013-11-23 14:49:00,
2013-11-23 10:04:00,33.3,24.9,29.77,SW,225,4.7,-999.0,71,-99.99,,,0.00,Acu-Link.com,2013-11-23 15:04:00,
2013-11-23 10:20:00,32.2,25.5,29.76,NNE,22,2.7,-999.0,76,-99.99,,,0.00,Acu-Link.com,2013-11-23 15:20:00,
2013-11-23 10:35:00,32.0,23.3,29.76,SSW,202,5.8,-999.0,70,-99.99,,,0.00,Acu-Link.com,2013-11-23 15:35:00,
2013-11-23 10:50:00,32.0,23.7,29.75,NW,315,5.3,-999.0,71,-99.99,,,0.00,Acu-Link.com,2013-11-23 15:50:00,
2013-11-23 11:05:00,32.2,24.9,29.75,NW,315,3.2,-999.0,74,-99.99,,,0.00,Acu-Link.com,2013-11-23 16:05:00,
2013-11-23 11:21:00,31.5,25.4,29.74,NNW,337,3.2,-999.0,78,-99.99,,,0.00,Acu-Link.com,2013-11-23 16:21:00,
2013-11-23 11:36:00,31.8,24.8,29.75,NE,45,3.2,-999.0,75,-99.99,,,0.00,Acu-Link.com,2013-11-23 16:36:00,
2013-11-23 11:51:00,31.5,23.5,29.74,NW,315,5.3,-999.0,72,-99.99,,,0.00,Acu-Link.com,2013-11-23 16:51:00,
2013-11-23 12:06:00,31.8,22.5,29.74,NW,315,3.7,-999.0,68,-99.99,,,0.00,Acu-Link.com,2013-11-23 17:06:00,
2013-11-23 12:21:00,31.5,21.8,29.73,NNE,22,6.3,-999.0,67,-99.99,,,0.00,Acu-Link.com,2013-11-23 17:21:00,
2013-11-23 12:37:00,31.6,22.3,29.72,NW,315,2.7,-999.0,68,-99.99,,,0.00,Acu-Link.com,2013-11-23 17:37:00,
2013-11-23 12:52:00,32.2,22.8,29.72,NNW,337,2.7,-999.0,68,-99.99,,,0.00,Acu-Link.com,2013-11-23 17:52:00,
2013-11-23 13:07:00,32.2,22.5,29.71,NE,45,6.3,-999.0,67,-99.99,,,0.00,Acu-Link.com,2013-11-23 18:07:00,
2013-11-23 13:22:00,32.2,22.8,29.71,WNW,292,4.7,-999.0,68,-99.99,,,0.00,Acu-Link.com,2013-11-23 18:22:00,
2013-11-23 13:37:00,32.4,23.4,29.71,NW,315,3.7,-999.0,69,-99.99,,,0.00,Acu-Link.com,2013-11-23 18:37:00,
2013-11-23 13:53:00,31.6,22.3,29.70,West,270,4.2,-999.0,68,-99.99,,,0.00,Acu-Link.com,2013-11-23 18:53:00,
2013-11-23 14:08:00,32.0,23.3,29.71,WNW,292,0.0,-999.0,70,-99.99,,,0.00,Acu-Link.com,2013-11-23 19:08:00,
2013-11-23 14:23:00,31.8,22.8,29.69,NNW,337,2.2,-999.0,69,-99.99,,,0.00,Acu-Link.com,2013-11-23 19:23:00,
2013-11-23 14:38:00,31.8,22.5,29.68,NNE,22,2.7,-999.0,68,-99.99,,,0.00,Acu-Link.com,2013-11-23 19:38:00,
2013-11-23 14:53:00,31.1,23.1,29.69,North,0,1.1,-999.0,72,-99.99,,,0.00,Acu-Link.com,2013-11-23 19:53:00,
2013-11-23 15:09:00,30.7,23.7,29.69,North,0,0.0,-999.0,75,-99.99,,,0.00,Acu-Link.com,2013-11-23 20:09:00,
2013-11-23 15:24:00,30.4,25.0,29.68,WNW,292,3.2,-999.0,80,-99.99,,,0.00,Acu-Link.com,2013-11-23 20:24:00,
2013-11-23 15:39:00,30.2,23.6,29.68,NNE,22,2.2,-999.0,76,-99.99,,,0.00,Acu-Link.com,2013-11-23 20:39:00,
2013-11-23 15:54:00,29.8,22.5,29.67,WNW,292,1.7,-999.0,74,-99.99,,,0.00,Acu-Link.com,2013-11-23 20:54:00,
2013-11-23 16:09:00,29.8,22.5,29.68,NW,315,1.1,-999.0,74,-99.99,,,0.00,Acu-Link.com,2013-11-23 21:09:00,
2013-11-23 16:25:00,29.7,23.1,29.66,ENE,67,1.7,-999.0,76,-99.99,,,0.00,Acu-Link.com,2013-11-23 21:25:00,
2013-11-23 16:40:00,29.5,21.3,29.66,North,0,0.0,-999.0,71,-99.99,,,0.00,Acu-Link.com,2013-11-23 21:40:00,
2013-11-23 16:55:00,29.7,21.5,29.67,WNW,292,0.0,-999.0,71,-99.99,,,0.00,Acu-Link.com,2013-11-23 21:55:00,
2013-11-23 17:11:00,29.3,22.7,29.66,NNE,22,0.0,-999.0,76,-99.99,,,0.00,Acu-Link.com,2013-11-23 22:11:00,
2013-11-23 17:26:00,29.1,21.9,29.66,NW,315,1.1,-999.0,74,-99.99,,,0.00,Acu-Link.com,2013-11-23 22:26:00,
2013-11-23 17:41:00,28.9,22.0,29.65,NNE,22,1.7,-999.0,75,-99.99,,,0.00,Acu-Link.com,2013-11-23 22:41:00,
2013-11-23 17:56:00,28.6,22.0,29.65,WNW,292,2.2,-999.0,76,-99.99,,,0.00,Acu-Link.com,2013-11-23 22:56:00,
2013-11-23 18:12:00,28.9,22.6,29.64,East,90,0.0,-999.0,77,-99.99,,,0.00,Acu-Link.com,2013-11-23 23:12:00,
2013-11-23 18:27:00,28.8,22.5,29.64,NW,315,0.0,-999.0,77,-99.99,,,0.00,Acu-Link.com,2013-11-23 23:27:00,
2013-11-23 18:42:00,28.8,22.8,29.63,WNW,292,0.0,-999.0,78,-99.99,,,0.00,Acu-Link.com,2013-11-23 23:42:00,
2013-11-23 18:57:00,28.8,23.1,29.63,West,270,0.0,-999.0,79,-99.99,,,0.00,Acu-Link.com,2013-11-23 23:57:00,
2013-11-23 19:12:00,28.8,23.1,29.63,SW,225,2.2,-999.0,79,-99.99,,,0.00,Acu-Link.com,2013-11-24 00:12:00,
2013-11-23 19:27:00,28.9,24.7,29.62,East,90,0.0,-999.0,84,-99.99,,,0.00,Acu-Link.com,2013-11-24 00:27:00,
2013-11-23 19:43:00,28.4,27.2,29.61,WNW,292,0.0,-999.0,95,-99.99,,,0.00,Acu-Link.com,2013-11-24 00:43:00,
2013-11-23 19:58:00,28.2,27.2,29.61,ESE,112,0.0,-999.0,96,-99.99,,,0.00,Acu-Link.com,2013-11-24 00:58:00,
2013-11-23 20:13:00,28.2,27.7,29.60,ESE,112,0.0,-999.0,98,-99.99,,,0.00,Acu-Link.com,2013-11-24 01:13:00,
2013-11-23 20:28:00,28.0,27.5,29.60,West,270,0.0,-999.0,98,-99.99,,,0.00,Acu-Link.com,2013-11-24 01:28:00,
2013-11-23 20:43:00,27.9,27.4,29.59,NE,45,0.0,-999.0,98,-99.99,,,0.00,Acu-Link.com,2013-11-24 01:43:00,
2013-11-23 20:59:00,28.2,24.8,29.59,ENE,67,2.2,-999.0,87,-99.99,,,0.00,Acu-Link.com,2013-11-24 01:59:00,
2013-11-23 21:14:00,27.3,26.8,29.62,NNE,22,1.7,-999.0,98,-99.99,,,0.00,Acu-Link.com,2013-11-24 02:14:00,
2013-11-23 21:29:00,26.2,25.7,29.60,North,0,1.7,-999.0,98,-99.99,,,0.00,Acu-Link.com,2013-11-24 02:29:00,
2013-11-23 21:44:00,25.7,25.2,29.61,SSE,157,1.7,-999.0,98,-99.99,,,0.00,Acu-Link.com,2013-11-24 02:44:00,
2013-11-23 21:59:00,25.3,24.3,29.60,NW,315,2.2,-999.0,96,-99.99,,,0.00,Acu-Link.com,2013-11-24 02:59:00,
2013-11-23 22:14:00,25.2,24.0,29.62,WNW,292,3.2,-999.0,95,-99.99,,,0.00,Acu-Link.com,2013-11-24 03:14:00,
2013-11-23 22:29:00,25.2,22.9,29.63,SE,135,2.2,-999.0,91,-99.99,,,0.00,Acu-Link.com,2013-11-24 03:29:00,
2013-11-23 22:45:00,24.8,24.3,29.62,WSW,247,2.2,-999.0,98,-99.99,,,0.00,Acu-Link.com,2013-11-24 03:45:00,
2013-11-23 23:00:00,24.3,21.5,29.62,NNW,337,4.2,-999.0,89,-99.99,,,0.00,Acu-Link.com,2013-11-24 04:00:00,
2013-11-23 23:15:00,24.3,21.3,29.63,NNE,22,2.7,-999.0,88,-99.99,,,0.00,Acu-Link.com,2013-11-24 04:15:00,
2013-11-23 23:30:00,23.9,21.9,29.63,West,270,1.7,-999.0,92,-99.99,,,0.00,Acu-Link.com,2013-11-24 04:30:00,
2013-11-23 23:46:00,23.2,18.5,29.63,North,0,3.2,-999.0,82,-99.99,,,0.00,Acu-Link.com,2013-11-24 04:46:00,